Terminal Aerodrome Forecast
Issued by NWS Sterling, VA

Home | Current Version | Previous Version | Text Only | Print | Product List | Glossary On
Versions: 1 2 3 4 5 6 7 8 9 10 11 12 13 14 15
000
FTUS41 KLWX 241720
TAFCHO
TAF
KCHO 241720Z 2418/2518 05005KT P6SM FEW060 SCT200
     FM242100 05006KT P6SM SCT030 BKN040
     FM251500 06005KT P6SM FEW045 SCT070=

USA.gov is the U.S. government's official web portal to all federal, state and local government web resources and services.